Time;durP1;ratioP1;P1;durP2;ratioP2;P2;SDS_P1;SDS_P2;PMS_P1;PMS_P2;Temp;Humidity;BMP_temperature;BMP_pressure;BME280_temperature;BME280_humidity;BME280_pressure;Samples;Min_cycle;Max_cycle;Signal;HPM_P1;HPM_P2
2022/05/29 00:01:21;;;;;;;11.82;2.78;;;;;;;8.53;74.77;101700.63;5038234;28;20041;-73
2022/05/29 00:03:49;;;;;;;7.57;2.53;;;;;;;8.60;74.75;101704.06;5041241;28;20038;-77
2022/05/29 00:06:17;;;;;;;3.78;2.13;;;;;;;8.64;74.60;101703.19;5044955;28;20050;-77
2022/05/29 00:08:46;;;;;;;8.23;2.97;;;;;;;8.72;75.07;101697.81;5039569;28;20034;-77
2022/05/29 00:11:14;;;;;;;9.10;2.88;;;;;;;8.77;75.17;101694.28;5050864;28;20490;-78
2022/05/29 00:13:46;;;;;;;7.32;2.33;;;;;;;8.81;75.18;101689.84;5042017;28;20108;-76
2022/05/29 00:16:14;;;;;;;7.90;2.70;;;;;;;8.88;75.18;101690.66;5036227;28;20120;-78
2022/05/29 00:18:43;;;;;;;6.30;2.28;;;;;;;8.95;75.11;101679.22;5043308;28;20053;-76
2022/05/29 00:21:10;;;;;;;4.63;2.47;;;;;;;9.03;74.92;101674.75;5043810;28;20092;-76
2022/05/29 00:23:42;;;;;;;7.40;2.65;;;;;;;9.13;74.64;101673.75;5039311;28;20060;-76
2022/05/29 00:26:10;;;;;;;9.90;2.70;;;;;;;9.18;74.68;101665.81;5032416;28;20518;-75
2022/05/29 00:28:37;;;;;;;6.45;2.67;;;;;;;9.23;74.62;101664.00;5048255;28;20057;-75
2022/05/29 00:31:04;;;;;;;8.38;2.60;;;;;;;9.25;74.61;101661.38;5042654;28;20448;-75
2022/05/29 00:33:32;;;;;;;6.32;2.45;;;;;;;9.21;74.55;101662.28;5035169;28;20530;-77
2022/05/29 00:36:01;;;;;;;5.75;2.28;;;;;;;9.18;74.69;101660.56;5032426;28;20057;-77
2022/05/29 00:38:36;;;;;;;7.72;2.45;;;;;;;9.16;74.79;101657.06;5032617;28;20034;-77
2022/05/29 00:41:17;;;;;;;4.70;2.10;;;;;;;9.09;75.10;101663.28;5051108;28;20037;-77
2022/05/29 00:44:18;;;;;;;9.48;2.58;;;;;;;9.01;75.36;101661.59;5043727;28;20042;-76
2022/05/29 00:46:50;;;;;;;6.88;2.40;;;;;;;8.93;75.43;101665.22;5029224;28;20057;-74
2022/05/29 00:49:25;;;;;;;4.90;2.42;;;;;;;8.84;75.45;101653.03;5038585;28;20060;-74
2022/05/29 00:52:06;;;;;;;6.63;2.47;;;;;;;8.79;75.80;101644.31;5043595;28;20069;-74
2022/05/29 00:54:53;;;;;;;7.93;2.60;;;;;;;8.73;76.04;101644.38;5033753;28;20141;-74
2022/05/29 00:57:30;;;;;;;10.18;2.60;;;;;;;8.69;76.42;101643.53;5032256;28;20046;-74
2022/05/29 01:00:14;;;;;;;9.07;2.45;;;;;;;8.68;76.96;101647.03;5050392;28;20037;-78
2022/05/29 01:02:45;;;;;;;11.73;2.55;;;;;;;8.61;76.89;101645.38;5033568;28;20078;-76
2022/05/29 01:05:17;;;;;;;8.18;2.60;;;;;;;8.60;76.79;101647.09;5044337;28;20535;-76
2022/05/29 01:08:12;;;;;;;9.13;2.60;;;;;;;8.61;77.10;101645.38;5033845;28;20527;-76
2022/05/29 01:11:17;;;;;;;11.30;2.90;;;;;;;8.58;77.24;101641.00;5040472;28;20037;-77
2022/05/29 01:14:11;;;;;;;8.35;2.70;;;;;;;8.58;77.13;101638.38;5049561;28;20038;-73
2022/05/29 01:16:56;;;;;;;6.25;2.88;;;;;;;8.54;77.03;101639.28;5042108;28;20097;-73
2022/05/29 01:20:01;;;;;;;9.18;2.70;;;;;;;8.52;77.29;101630.53;5049649;28;20052;-73
2022/05/29 01:23:09;;;;;;;6.72;2.88;;;;;;;8.57;77.33;101633.13;5031214;28;20054;-74
2022/05/29 01:26:03;;;;;;;9.38;3.05;;;;;;;8.57;77.25;101634.00;5051522;28;20046;-75
2022/05/29 01:28:46;;;;;;;6.88;2.65;;;;;;;8.59;77.76;101636.63;5031256;28;20045;-76
2022/05/29 01:31:35;;;;;;;14.48;3.17;;;;;;;8.59;78.02;101629.63;5047628;28;20072;-75
2022/05/29 01:34:11;;;;;;;12.60;3.13;;;;;;;8.62;77.86;101628.72;5031593;28;20046;-75
2022/05/29 01:36:58;;;;;;;10.60;2.90;;;;;;;8.66;77.73;101619.88;5031977;28;20042;-78
2022/05/29 01:39:31;;;;;;;10.65;3.10;;;;;;;8.73;77.84;101621.59;5033802;28;20155;-80
2022/05/29 01:42:15;;;;;;;9.80;3.35;;;;;;;8.78;78.09;101616.28;5049956;28;20042;-77
2022/05/29 01:44:58;;;;;;;9.00;3.03;;;;;;;8.79;78.17;101624.16;5038961;28;20048;-79
2022/05/29 01:47:44;;;;;;;13.23;3.45;;;;;;;8.78;78.05;101621.53;5047421;28;20050;-78
2022/05/29 01:50:44;;;;;;;8.52;3.10;;;;;;;8.77;78.51;101622.44;5045298;28;20133;-78
2022/05/29 01:53:23;;;;;;;12.00;3.28;;;;;;;8.78;79.35;101617.13;5034850;28;20069;-77
2022/05/29 01:55:57;;;;;;;10.63;3.60;;;;;;;8.80;78.98;101614.50;5033705;28;20530;-77
2022/05/29 01:58:34;;;;;;;8.50;3.00;;;;;;;8.82;79.15;101618.88;5039424;28;20041;-76
2022/05/29 02:01:05;;;;;;;7.40;3.35;;;;;;;8.86;79.60;101614.44;5052499;28;20047;-78
2022/05/29 02:03:39;;;;;;;14.43;3.60;;;;;;;8.87;79.54;101616.19;5038572;28;20126;-77
2022/05/29 02:09:40;;;;;;;10.20;2.97;;;;;;;8.89;79.93;101609.16;5054329;28;20492;-76
2022/05/29 02:12:14;;;;;;;9.88;3.30;;;;;;;8.91;80.08;101615.25;5035135;28;20080;-76
2022/05/29 02:15:01;;;;;;;;;;;;;;;8.96;80.59;101610.81;5041445;28;20061;-75
2022/05/29 02:17:40;;;;;;;13.15;4.38;;;;;;;8.99;80.29;101605.53;5034406;28;19931;-75
2022/05/29 02:20:20;;;;;;;11.15;3.42;;;;;;;9.00;80.37;101595.88;5035491;28;20041;-76
2022/05/29 02:22:54;;;;;;;15.30;3.90;;;;;;;9.06;80.27;101595.78;5042159;28;20049;-76
2022/05/29 02:25:26;;;;;;;10.60;3.38;;;;;;;9.09;80.36;101602.78;5034461;28;20061;-76
2022/05/29 02:28:11;;;;;;;10.02;3.72;;;;;;;9.08;80.05;101587.91;5033518;28;20427;-75
2022/05/29 02:30:50;;;;;;;10.90;3.33;;;;;;;9.07;80.44;101583.53;5040235;28;20038;-77
2022/05/29 02:33:26;;;;;;;12.85;3.90;;;;;;;9.06;80.34;101581.78;5046033;28;20040;-77
2022/05/29 02:36:29;;;;;;;10.35;4.03;;;;;;;9.07;80.06;101584.38;5045214;28;20049;-76
2022/05/29 02:39:33;;;;;;;10.40;4.05;;;;;;;9.05;80.18;101586.19;5034546;28;20475;-76
2022/05/29 02:42:32;;;;;;;14.25;4.22;;;;;;;9.01;80.40;101572.16;5054072;28;20828;-75
2022/05/29 02:45:18;;;;;;;14.07;4.22;;;;;;;8.99;80.36;101581.88;5034495;28;20165;-75
2022/05/29 02:48:14;;;;;;;8.68;4.30;;;;;;;8.97;80.18;101570.50;5038833;28;20113;-76
2022/05/29 02:51:03;;;;;;;10.30;4.50;;;;;;;8.95;80.00;101569.63;5047379;28;20049;-76
2022/05/29 02:53:33;;;;;;;11.55;4.47;;;;;;;8.91;80.03;101564.44;5052601;28;20041;-74
2022/05/29 02:56:05;;;;;;;8.50;4.55;;;;;;;8.88;80.80;101562.72;5053330;28;20492;-74
2022/05/29 02:58:35;;;;;;;12.68;5.25;;;;;;;8.90;80.82;101555.69;5051477;28;20041;-75
2022/05/29 03:01:54;;;;;;;11.27;4.70;;;;;;;8.90;80.82;101555.69;5053436;28;20128;-74
2022/05/29 03:04:36;;;;;;;10.80;4.50;;;;;;;8.87;80.64;101555.72;5072402;28;20056;-74
2022/05/29 03:07:49;;;;;;;10.32;4.55;;;;;;;8.84;80.63;101559.25;5057403;28;20065;-75
2022/05/29 03:10:31;;;;;;;10.40;4.28;;;;;;;8.85;80.87;101560.97;5061440;28;20045;-74
2022/05/29 03:13:19;;;;;;;9.00;4.22;;;;;;;8.82;80.63;101563.66;5076532;28;20057;-75
2022/05/29 03:16:07;;;;;;;14.65;4.85;;;;;;;8.80;80.84;101552.28;5039102;28;20137;-74
2022/05/29 03:19:00;;;;;;;14.70;4.63;;;;;;;8.79;80.62;101555.78;5051250;28;20096;-73
2022/05/29 03:22:05;;;;;;;11.60;4.70;;;;;;;8.78;80.86;101555.81;5052777;28;20045;-72
2022/05/29 03:25:13;;;;;;;10.65;4.70;;;;;;;8.77;80.93;101549.66;5051220;28;20038;-73
2022/05/29 03:27:47;;;;;;;11.50;4.47;;;;;;;8.78;81.01;101564.56;5052305;28;20049;-74
2022/05/29 03:30:27;;;;;;;13.55;4.50;;;;;;;8.77;81.18;101549.66;5053178;28;20045;-76
2022/05/29 03:33:02;;;;;;;9.68;4.85;;;;;;;8.80;80.77;101557.53;5046515;28;20755;-77
2022/05/29 03:35:33;;;;;;;12.88;4.78;;;;;;;8.77;80.92;101559.31;5052585;28;20045;-76
2022/05/29 03:38:04;;;;;;;14.18;5.13;;;;;;;8.80;80.75;101554.03;5037464;28;20049;-75
2022/05/29 03:40:33;;;;;;;11.60;4.75;;;;;;;8.80;80.91;101554.03;5042690;28;20121;-76
2022/05/29 03:43:01;;;;;;;10.70;4.15;;;;;;;8.80;80.91;101546.16;5049304;28;20037;-75
2022/05/29 03:45:28;;;;;;;12.10;4.25;;;;;;;8.80;80.88;101546.16;5051964;28;20033;-76
2022/05/29 03:47:56;;;;;;;9.38;3.83;;;;;;;8.79;81.04;101545.28;5036143;28;20046;-74
2022/05/29 03:50:25;;;;;;;12.63;4.35;;;;;;;8.81;81.09;101542.63;5048743;28;20045;-76
2022/05/29 03:52:53;;;;;;;8.63;4.15;;;;;;;8.80;81.39;101547.00;5033967;28;20077;-75
2022/05/29 03:55:26;;;;;;;10.35;3.20;;;;;;;8.84;81.66;101539.97;5033012;28;20049;-75
2022/05/29 03:57:53;;;;;;;8.30;3.10;;;;;;;8.85;81.73;101544.31;5032626;28;20124;-75
2022/05/29 04:00:23;;;;;;;12.82;3.30;;;;;;;8.88;82.18;101540.78;5039402;28;20044;-76
2022/05/29 04:02:52;;;;;;;9.85;3.10;;;;;;;8.89;82.12;101538.16;5047691;28;20057;-74
2022/05/29 04:05:23;;;;;;;7.10;2.60;;;;;;;8.90;82.07;101541.66;5044532;28;20034;-72
2022/05/29 04:13:38;;;;;;;8.93;2.40;;;;;;;8.94;81.81;101533.69;5038388;28;20589;-72
2022/05/29 04:16:14;;;;;;;7.93;2.50;;;;;;;8.94;82.15;101533.69;5040477;28;20055;-72
2022/05/29 04:18:41;;;;;;;6.40;2.55;;;;;;;8.97;83.01;101531.03;5033886;28;20056;-71
2022/05/29 04:21:09;;;;;;;7.15;2.97;;;;;;;8.95;82.64;101542.47;5040563;28;20069;-72
2022/05/29 04:23:36;;;;;;;12.13;3.45;;;;;;;8.93;82.96;101528.47;5032331;28;20516;-73
2022/05/29 04:26:04;;;;;;;11.02;3.47;;;;;;;8.90;83.35;101534.66;5033747;28;20136;-72
2022/05/29 04:28:31;;;;;;;9.35;3.60;;;;;;;8.89;83.46;101535.53;5037830;28;20060;-75
2022/05/29 04:30:58;;;;;;;12.65;4.00;;;;;;;8.88;83.63;101533.78;5039090;28;20096;-71
2022/05/29 04:33:26;;;;;;;10.43;3.83;;;;;;;8.90;83.64;101528.50;5049972;28;20378;-71
2022/05/29 04:35:54;;;;;;;10.27;4.00;;;;;;;8.88;84.20;101527.63;5048098;28;20049;-71
2022/05/29 04:38:24;;;;;;;10.80;4.00;;;;;;;8.85;84.17;101523.28;5044853;28;20038;-71
2022/05/29 04:40:52;;;;;;;13.38;4.25;;;;;;;8.85;84.64;101524.16;5035261;28;20037;-73
2022/05/29 04:43:21;;;;;;;14.25;4.00;;;;;;;8.90;84.54;101534.66;5040220;28;20045;-73
2022/05/29 04:45:54;;;;;;;11.13;4.32;;;;;;;8.90;84.63;101523.22;5047990;28;20497;-66
2022/05/29 04:48:22;;;;;;;13.45;4.22;;;;;;;8.90;84.73;101518.88;5037599;28;20049;-71
2022/05/29 04:51:02;;;;;;;14.10;4.43;;;;;;;8.95;84.63;101516.19;5035669;28;20036;-72
2022/05/29 04:53:31;;;;;;;9.13;4.30;;;;;;;8.98;84.73;101518.75;5038869;28;20041;-72
2022/05/29 04:55:59;;;;;;;13.95;5.22;;;;;;;9.03;84.87;101516.94;5043733;28;20096;-72
2022/05/29 04:58:29;;;;;;;16.50;5.22;;;;;;;9.12;84.58;101508.94;5044770;28;20140;-72
2022/05/29 05:01:02;;;;;;;9.40;4.88;;;;;;;9.17;84.19;101511.50;5052184;28;20030;-71
2022/05/29 05:03:31;;;;;;;12.05;5.10;;;;;;;9.22;83.69;101521.94;5049535;28;20053;-73
2022/05/29 05:05:59;;;;;;;10.23;5.05;;;;;;;9.27;83.61;101509.59;5050328;28;20095;-72
2022/05/29 05:08:27;;;;;;;15.80;5.93;;;;;;;9.31;83.99;101508.66;5040668;28;20112;-74
2022/05/29 05:10:55;;;;;;;10.23;5.10;;;;;;;9.38;83.81;101504.19;5035242;28;20041;-73
2022/05/29 05:13:23;;;;;;;8.95;5.18;;;;;;;9.60;83.26;101507.34;5044742;28;20140;-74
2022/05/29 05:16:02;;;;;;;10.50;5.28;;;;;;;9.77;82.78;101500.03;5034963;28;20096;-74
2022/05/29 05:18:30;;;;;;;7.85;4.20;;;;;;;10.08;81.52;101509.22;5035571;28;20050;-74
2022/05/29 05:20:57;;;;;;;9.32;3.85;;;;;;;10.51;80.39;101497.91;5035013;28;20052;-74
2022/05/29 05:23:27;;;;;;;8.75;3.65;;;;;;;10.90;78.94;101501.53;5035571;28;20118;-74
2022/05/29 05:25:55;;;;;;;11.20;3.25;;;;;;;11.01;77.51;101497.75;5052173;28;20038;-74
2022/05/29 05:28:24;;;;;;;11.75;3.60;;;;;;;11.49;76.11;101495.81;5035212;28;20049;-75
2022/05/29 05:30:51;;;;;;;6.05;2.58;;;;;;;12.83;71.78;101487.94;5036173;28;20048;-75
2022/05/29 05:33:18;;;;;;;5.45;2.40;;;;;;;15.00;64.25;101491.31;5034892;28;20538;-75
2022/05/29 05:35:46;;;;;;;7.78;2.60;;;;;;;14.09;65.34;101483.06;5041373;28;20155;-75
2022/05/29 05:38:13;;;;;;;5.78;2.20;;;;;;;14.26;64.30;101482.47;5038323;28;20073;-74
2022/05/29 05:40:40;;;;;;;7.18;1.80;;;;;;;14.73;62.13;101491.41;5049376;28;20732;-74
2022/05/29 05:43:08;;;;;;;7.32;1.73;;;;;;;16.79;57.97;101471.41;5039840;28;20386;-76
2022/05/29 05:45:41;;;;;;;5.70;1.70;;;;;;;18.77;51.89;101477.53;5035292;28;20040;-75
2022/05/29 05:48:09;;;;;;;5.22;1.55;;;;;;;17.62;52.07;101477.22;5033750;28;20101;-75
2022/05/29 05:50:38;;;;;;;3.70;1.50;;;;;;;16.98;53.79;101485.59;5049696;28;20046;-76
2022/05/29 05:53:05;;;;;;;3.40;1.50;;;;;;;17.49;52.87;101483.19;5043465;28;20042;-75
2022/05/29 05:55:36;;;;;;;4.70;1.50;;;;;;;16.91;53.76;101485.00;5045567;28;20531;-76
2022/05/29 05:58:03;;;;;;;5.82;1.55;;;;;;;15.44;57.49;101491.31;5032988;28;20069;-75
2022/05/29 06:00:30;;;;;;;4.72;1.92;;;;;;;14.43;59.98;101494.25;5033743;28;20073;-74
2022/05/29 06:02:57;;;;;;;5.85;1.60;;;;;;;13.79;62.20;101500.84;5034197;28;20553;-73
2022/05/29 06:05:26;;;;;;;4.13;1.60;;;;;;;12.98;65.19;101499.84;5033854;28;20053;-75
2022/05/29 06:07:53;;;;;;;3.70;1.60;;;;;;;12.51;66.75;101505.59;5041276;28;20037;-74
2022/05/29 06:10:21;;;;;;;5.80;1.98;;;;;;;12.21;68.73;101506.34;5054243;28;20515;-73
2022/05/29 06:12:48;;;;;;;5.47;1.70;;;;;;;11.88;70.03;101506.31;5050202;28;20053;-75
2022/05/29 06:15:16;;;;;;;5.50;1.60;;;;;;;11.66;71.08;101500.69;5032249;28;20078;-74
2022/05/29 06:17:44;;;;;;;3.88;1.58;;;;;;;11.47;71.69;101502.91;5033681;28;20046;-75
2022/05/29 06:20:12;;;;;;;4.82;1.50;;;;;;;11.36;71.52;101503.13;5033718;28;20038;-74
2022/05/29 06:22:41;;;;;;;3.20;1.50;;;;;;;11.29;72.16;101512.09;5033023;28;20041;-76
2022/05/29 06:25:10;;;;;;;3.45;1.20;;;;;;;11.22;72.00;101515.78;5037390;28;20909;-74
2022/05/29 06:27:43;;;;;;;4.10;1.63;;;;;;;11.17;72.62;101507.97;5049346;28;20042;-73
2022/05/29 06:30:15;;;;;;;4.22;1.98;;;;;;;11.27;72.90;101512.16;5037040;28;20058;-74
2022/05/29 06:32:42;;;;;;;4.18;1.83;;;;;;;11.46;73.19;101501.16;5033692;28;20042;-73
2022/05/29 06:35:13;;;;;;;5.35;1.75;;;;;;;11.70;72.84;101498.84;5033636;28;20053;-74
2022/05/29 06:37:41;;;;;;;3.83;1.45;;;;;;;11.82;72.69;101501.16;5036848;28;20120;-75
2022/05/29 06:40:12;;;;;;;4.32;1.83;;;;;;;11.90;72.82;101495.69;5048291;28;20849;-74
2022/05/29 06:42:40;;;;;;;3.42;1.58;;;;;;;11.93;72.83;101495.63;5039770;28;20121;-73
2022/05/29 06:45:10;;;;;;;3.75;1.23;;;;;;;11.91;71.69;101503.56;5036269;28;20052;-75
2022/05/29 06:47:39;;;;;;;4.05;1.30;;;;;;;11.85;70.93;101509.03;5042834;28;20042;-74
2022/05/29 06:50:08;;;;;;;3.03;1.15;;;;;;;11.74;71.68;101508.41;5030600;28;20077;-74
2022/05/29 06:52:36;;;;;;;5.10;1.30;;;;;;;11.63;72.11;101516.63;5036301;28;21051;-74
2022/05/29 06:55:05;;;;;;;3.80;1.23;;;;;;;11.58;71.54;101513.19;5030139;28;20034;-74
2022/05/29 06:57:44;;;;;;;3.28;1.10;;;;;;;11.53;71.68;101510.66;5030148;28;20119;-74
2022/05/29 07:08:47;;;;;;;4.88;1.55;;;;;;;12.02;71.69;101503.34;5044211;28;20041;-73
2022/05/29 07:11:24;;;;;;;3.50;1.30;;;;;;;12.33;71.08;101507.84;5032695;28;20137;-73
2022/05/29 07:13:54;;;;;;;2.72;1.33;;;;;;;12.61;70.87;101499.13;5038262;28;20069;-74
2022/05/29 07:16:21;;;;;;;5.25;1.40;;;;;;;12.69;70.24;101501.56;5041862;28;20538;-73
2022/05/29 07:18:50;;;;;;;4.03;1.25;;;;;;;12.84;69.74;101492.31;5045377;28;20412;-74
2022/05/29 07:21:22;;;;;;;2.58;1.15;;;;;;;12.85;68.75;101497.53;5037907;28;20046;-72
2022/05/29 07:23:51;;;;;;;3.30;1.40;;;;;;;12.94;68.82;101499.06;5043528;28;20048;-71
2022/05/29 07:26:21;;;;;;;5.00;1.48;;;;;;;13.10;68.51;101495.94;5048490;28;20091;-71
2022/05/29 07:28:49;;;;;;;3.33;1.23;;;;;;;13.18;68.31;101501.84;5048137;28;20902;-71
2022/05/29 07:31:16;;;;;;;2.70;1.42;;;;;;;13.21;68.00;101493.84;5044996;28;20419;-70
2022/05/29 07:33:46;;;;;;;7.57;1.80;;;;;;;13.31;66.81;101492.63;5045322;28;20458;-71
2022/05/29 07:36:14;;;;;;;3.97;1.70;;;;;;;13.34;67.14;101496.97;5049117;28;20049;-73
2022/05/29 07:38:41;;;;;;;3.03;1.40;;;;;;;13.17;67.00;101502.81;5036441;28;20471;-70
2022/05/29 07:43:55;;;;;;;4.38;1.48;;;;;;;13.37;66.92;101494.22;5032904;28;20479;-73
2022/05/29 07:46:22;;;;;;;6.10;1.50;;;;;;;13.58;66.94;101491.84;5046096;28;20048;-74
2022/05/29 07:48:51;;;;;;;4.60;1.58;;;;;;;13.77;65.62;101492.97;5044928;28;20092;-73
2022/05/29 07:51:20;;;;;;;4.55;1.23;;;;;;;13.84;64.80;101490.13;5046587;28;20040;-72
2022/05/29 07:53:47;;;;;;;3.72;1.60;;;;;;;13.64;64.91;101487.22;5035127;28;20056;-73
2022/05/29 07:56:16;;;;;;;2.95;1.50;;;;;;;13.38;66.14;101493.31;5043782;28;20124;-71
2022/05/29 07:58:44;;;;;;;3.35;1.70;;;;;;;13.07;66.77;101496.06;5048155;28;20042;-72
2022/05/29 08:01:11;;;;;;;4.00;1.70;;;;;;;12.80;67.79;101494.19;5045798;28;20038;-73
2022/05/29 08:03:39;;;;;;;8.18;2.55;;;;;;;12.45;69.05;101503.13;5046348;28;20041;-71
2022/05/29 08:06:07;;;;;;;5.38;1.90;;;;;;;12.09;71.10;101507.56;5034604;28;20041;-70
2022/05/29 08:08:35;;;;;;;6.72;2.00;;;;;;;11.84;72.17;101507.28;5048653;28;20044;-69
2022/05/29 08:11:03;;;;;;;4.95;1.98;;;;;;;11.69;72.37;101497.97;5038654;28;20046;-70
2022/05/29 08:13:32;;;;;;;4.40;1.67;;;;;;;11.58;73.04;101505.28;5046739;28;20033;-71
2022/05/29 08:15:59;;;;;;;5.82;1.80;;;;;;;11.45;73.95;101502.91;5047346;28;20045;-71
2022/05/29 08:18:29;;;;;;;4.07;1.60;;;;;;;11.43;73.94;101494.19;5047129;28;20251;-71
2022/05/29 08:20:56;;;;;;;4.50;1.67;;;;;;;11.50;73.74;101501.06;5046299;28;20048;-70
2022/05/29 08:23:24;;;;;;;6.13;1.70;;;;;;;11.68;73.09;101498.03;5038513;28;20153;-69
2022/05/29 08:31:14;;;;;;;4.70;1.63;;;;;;;12.52;72.06;101484.38;5043278;28;20096;-71
2022/05/29 08:33:43;;;;;;;3.22;1.30;;;;;;;12.80;69.93;101480.06;5042486;28;20124;-71
2022/05/29 08:36:24;;;;;;;4.60;1.65;;;;;;;13.00;69.38;101485.63;5047501;28;20117;-71
2022/05/29 08:38:56;;;;;;;6.13;1.88;;;;;;;13.09;68.79;101479.22;5042151;28;20046;-71
2022/05/29 08:41:43;;;;;;;5.00;1.63;;;;;;;13.14;69.33;101482.56;5036805;28;20084;-71
2022/05/29 08:44:20;;;;;;;3.75;1.35;;;;;;;13.17;68.08;101481.63;5046260;28;20047;-72
2022/05/29 08:46:52;;;;;;;3.33;1.20;;;;;;;13.14;67.42;101485.22;5042726;28;20042;-71
2022/05/29 08:49:27;;;;;;;2.50;1.05;;;;;;;13.01;66.71;101482.06;5038970;28;20047;-73
2022/05/29 08:52:26;;;;;;;4.97;1.20;;;;;;;12.94;67.10;101482.31;5042764;28;20037;-72
2022/05/29 08:55:15;;;;;;;4.93;1.15;;;;;;;12.94;66.12;101477.00;5044534;28;20047;-71
2022/05/29 08:58:20;;;;;;;5.35;1.10;;;;;;;12.89;67.74;101474.50;5047550;28;20053;-70
2022/05/29 09:01:22;;;;;;;5.28;1.48;;;;;;;12.98;67.70;101470.72;5042864;28;20822;-71
2022/05/29 09:03:59;;;;;;;1.83;1.20;;;;;;;13.27;67.49;101474.25;5042654;28;20034;-72
2022/05/29 09:06:43;;;;;;;3.35;1.30;;;;;;;13.39;66.61;101473.91;5045078;28;20096;-70
2022/05/29 09:09:28;;;;;;;2.90;0.82;;;;;;;13.47;65.73;101469.22;5042953;28;20049;-72
2022/05/29 09:12:03;;;;;;;;;;;;;;;13.45;62.31;101468.38;5039529;28;20049;-72
2022/05/29 09:14:59;;;;;;;;;;;;;;;13.39;63.72;101459.72;5048110;28;19925;-72
2022/05/29 09:17:40;;;;;;;3.50;0.93;;;;;;;13.42;65.01;101465.84;5047073;28;19980;-71
2022/05/29 09:20:30;;;;;;;3.90;0.80;;;;;;;13.43;63.71;101456.97;5036442;28;20045;-70
2022/05/29 09:23:01;;;;;;;1.52;0.70;;;;;;;13.35;62.63;101465.16;5048097;28;20041;-70
2022/05/29 09:25:33;;;;;;;1.38;0.80;;;;;;;13.44;64.36;101455.22;5047299;28;20041;-71
2022/05/29 09:28:32;;;;;;;4.30;0.88;;;;;;;13.72;61.94;101455.16;5046849;28;20051;-73
2022/05/29 09:31:25;;;;;;;2.55;0.63;;;;;;;13.97;61.29;101456.97;5037135;28;20052;-71
2022/05/29 09:33:54;;;;;;;2.72;1.05;;;;;;;14.23;61.88;101442.78;5044179;28;20476;-71
2022/05/29 09:36:39;;;;;;;1.95;0.88;;;;;;;14.52;61.42;101443.50;5042519;28;20538;-72
2022/05/29 09:39:29;;;;;;;7.47;1.30;;;;;;;14.75;61.15;101439.16;5042944;28;20042;-73
2022/05/29 09:42:21;;;;;;;3.22;1.17;;;;;;;15.00;59.99;101439.06;5044066;28;20573;-72
2022/05/29 09:45:15;;;;;;;4.50;0.95;;;;;;;15.01;60.21;101430.16;5041490;28;20045;-72
2022/05/29 09:50:46;;;;;;;3.67;1.20;;;;;;;15.18;59.96;101440.13;5048988;28;20525;-72
2022/05/29 09:53:28;;;;;;;5.07;1.05;;;;;;;15.43;59.54;101428.47;5043671;28;20045;-70
2022/05/29 09:56:09;;;;;;;3.28;1.17;;;;;;;15.58;59.20;101426.97;5047855;28;20041;-71
2022/05/29 09:58:48;;;;;;;3.75;1.38;;;;;;;15.75;60.26;101426.25;5041427;28;20480;-71
2022/05/29 10:01:40;;;;;;;6.38;1.30;;;;;;;15.84;59.92;101428.56;5047700;28;20033;-72
2022/05/29 10:04:37;;;;;;;3.58;0.98;;;;;;;15.78;57.79;101423.47;5047548;28;20045;-72
2022/05/29 10:07:35;;;;;;;3.33;0.90;;;;;;;15.56;57.27;101417.34;5043650;28;20865;-73
2022/05/29 10:10:25;;;;;;;4.38;1.15;;;;;;;15.30;56.98;101420.16;5048787;28;20046;-74
2022/05/29 10:12:57;;;;;;;3.78;0.80;;;;;;;15.05;57.76;101426.47;5048117;28;20065;-74
2022/05/29 10:15:24;;;;;;;3.50;0.70;;;;;;;14.74;57.83;101418.84;5037996;28;20125;-73
2022/05/29 10:18:11;;;;;;;3.10;0.68;;;;;;;14.39;59.84;101426.31;5042917;28;20046;-73
2022/05/29 10:20:44;;;;;;;3.50;0.85;;;;;;;14.04;61.71;101421.34;5031341;28;20050;-71
2022/05/29 10:23:29;;;;;;;4.20;1.17;;;;;;;13.84;62.76;101422.06;5035470;28;20034;-71
2022/05/29 10:26:34;;;;;;;3.70;0.73;;;;;;;13.77;63.86;101428.50;5062375;28;20040;-72
2022/05/29 10:29:18;;;;;;;4.35;0.80;;;;;;;13.85;64.55;101422.94;5049306;28;20057;-72
2022/05/29 10:31:50;;;;;;;4.20;0.80;;;;;;;13.92;63.99;101427.97;5070665;28;20057;-73
2022/05/29 10:34:31;;;;;;;2.50;0.80;;;;;;;14.00;63.69;101427.72;5067033;28;20068;-72
2022/05/29 10:37:01;;;;;;;2.25;0.90;;;;;;;14.07;63.05;101429.22;5045341;28;20041;-72
2022/05/29 10:39:31;;;;;;;0.93;0.50;;;;;;;14.21;62.18;101417.25;5035895;28;20050;-72
2022/05/29 10:42:03;;;;;;;;;;;;;;;14.36;60.53;101416.66;5032738;28;20076;-72
2022/05/29 10:44:44;;;;;;;2.92;0.50;;;;;;;14.56;59.54;101410.63;5032713;28;19972;-73
2022/05/29 10:47:45;;;;;;;4.00;0.90;;;;;;;14.74;60.30;101422.38;5036151;28;20061;-73
2022/05/29 10:50:21;;;;;;;2.33;0.57;;;;;;;14.83;58.47;101415.81;5041017;28;20165;-73
2022/05/29 10:53:03;;;;;;;2.75;0.70;;;;;;;14.91;58.35;101407.56;5037810;28;20033;-72
2022/05/29 10:55:51;;;;;;;1.23;0.70;;;;;;;15.11;57.57;101405.91;5039950;28;20049;-74
2022/05/29 10:58:57;;;;;;;2.95;0.70;;;;;;;15.20;56.18;101405.53;5047000;28;20718;-73
2022/05/29 11:05:43;;;;;;;1.60;0.50;;;;;;;15.84;56.36;101394.00;5047873;28;20046;-73
2022/05/29 11:09:07;;;;;;;2.85;0.60;;;;;;;16.00;55.09;101390.69;5046669;28;20030;-73
2022/05/29 11:11:59;;;;;;;5.47;0.60;;;;;;;16.28;51.69;101394.75;5046107;28;20054;-72
2022/05/29 11:14:55;;;;;;;2.58;0.50;;;;;;;16.35;52.86;101385.53;5045331;28;20049;-70
2022/05/29 11:18:00;;;;;;;3.90;0.70;;;;;;;16.66;53.22;101381.44;5047780;28;20042;-71
2022/05/29 11:21:09;;;;;;;1.25;0.50;;;;;;;16.96;49.53;101388.09;5042385;28;20041;-72
2022/05/29 11:24:12;;;;;;;2.03;0.50;;;;;;;16.86;50.58;101372.53;5044383;28;20138;-73
2022/05/29 11:26:54;;;;;;;3.58;0.60;;;;;;;16.67;50.55;101375.19;5045914;28;20536;-73
2022/05/29 11:29:40;;;;;;;3.85;0.70;;;;;;;16.43;50.62;101374.56;5049699;28;20038;-72
2022/05/29 11:32:57;;;;;;;3.03;0.50;;;;;;;16.08;52.03;101372.56;5048693;28;20123;-75
2022/05/29 11:35:42;;;;;;;1.48;0.47;;;;;;;15.90;52.22;101373.41;5048004;28;20959;-71
2022/05/29 11:38:53;;;;;;;2.92;1.08;;;;;;;15.69;52.61;101376.88;5048529;28;20047;-71
2022/05/29 11:41:44;;;;;;;1.00;0.45;;;;;;;15.61;53.02;101379.03;5045887;28;20056;-70
2022/05/29 11:44:34;;;;;;;3.17;0.70;;;;;;;15.58;53.61;101370.31;5046144;28;20051;-72
2022/05/29 11:51:07;;;;;;;6.47;1.00;;;;;;;15.17;55.18;101382.63;5046840;28;20124;-75
2022/05/29 11:53:25;;;;;;;3.28;0.45;;;;;;;14.75;55.82;101375.44;5044185;28;20500;-72
2022/05/29 11:55:59;;;;;;;4.82;1.17;;;;;;;14.35;57.17;101375.16;5048411;28;20507;-72
2022/05/29 11:58:37;;;;;;;4.05;0.75;;;;;;;14.21;58.63;101377.47;5047034;28;20515;-71
2022/05/29 12:01:21;;;;;;;5.78;0.80;;;;;;;14.25;59.11;101379.06;5043939;28;20496;-73
2022/05/29 12:03:54;;;;;;;;;;;;;;;14.49;58.23;101373.78;5046578;28;20045;-72
2022/05/29 12:06:34;;;;;;;4.68;0.70;;;;;;;14.90;55.38;101363.38;5043605;28;20020;-73
2022/05/29 12:09:35;;;;;;;3.10;0.68;;;;;;;15.16;54.16;101362.31;5047413;28;20088;-71
2022/05/29 12:12:14;;;;;;;4.18;0.73;;;;;;;15.63;53.53;101361.22;5041204;28;20060;-73
2022/05/29 12:14:52;;;;;;;7.18;1.02;;;;;;;15.78;54.30;101353.50;5033770;28;20033;-72
2022/05/29 12:17:37;;;;;;;3.92;0.65;;;;;;;16.09;52.38;101342.41;5042146;28;20109;-72
2022/05/29 12:20:14;;;;;;;5.15;0.80;;;;;;;16.34;52.49;101346.56;5042821;28;20152;-73
2022/05/29 12:23:07;;;;;;;3.53;0.70;;;;;;;16.34;52.02;101345.72;5042099;28;20049;-72
2022/05/29 12:26:00;;;;;;;2.15;0.60;;;;;;;16.01;52.94;101349.88;5045784;28;20038;-73
2022/05/29 12:28:52;;;;;;;5.18;0.77;;;;;;;15.77;54.23;101343.81;5044814;28;20033;-73
2022/05/29 12:31:36;;;;;;;3.25;0.70;;;;;;;15.83;51.63;101343.53;5048132;28;20161;-73
2022/05/29 12:34:21;;;;;;;4.22;1.00;;;;;;;15.66;53.28;101344.28;5042785;28;20052;-74
2022/05/29 12:36:56;;;;;;;2.20;0.80;;;;;;;15.73;54.34;101347.53;5045683;28;20049;-73
2022/05/29 12:39:43;;;;;;;4.43;0.80;;;;;;;15.80;52.85;101333.03;5048803;28;20109;-73
2022/05/29 12:42:34;;;;;;;4.28;0.73;;;;;;;15.89;50.97;101334.47;5047987;28;20041;-73
2022/05/29 12:45:09;;;;;;;4.07;0.75;;;;;;;15.94;51.65;101337.75;5045875;28;20125;-72
2022/05/29 12:48:07;;;;;;;3.03;0.70;;;;;;;16.10;52.11;101336.16;5052406;28;20065;-72
2022/05/29 12:51:09;;;;;;;4.70;0.75;;;;;;;16.35;50.26;101329.69;5052601;28;20072;-73
2022/05/29 12:54:06;;;;;;;3.00;0.68;;;;;;;16.54;49.10;101328.78;5050337;28;20041;-74